Time;durP1;ratioP1;P1;durP2;ratioP2;P2;SDS_P1;SDS_P2;PMS_P1;PMS_P2;Temp;Humidity;BMP_temperature;BMP_pressure;BME280_temperature;BME280_humidity;BME280_pressure;Samples;Min_cycle;Max_cycle;Signal;HPM_P1;HPM_P2
2022/11/28 00:00:37;;;;;;;13.30;7.10;;;;;;;;;;5023166;28;20603;-64
2022/11/28 00:03:03;;;;;;;10.18;6.38;;;;;;;;;;5028519;28;20648;-64
2022/11/28 00:05:28;;;;;;;10.17;6.80;;;;;;;;;;5034754;28;20231;-64
2022/11/28 00:07:54;;;;;;;12.00;7.17;;;;;;;;;;5030974;28;20182;-64
2022/11/28 00:10:20;;;;;;;11.43;7.00;;;;;;;;;;5022511;28;20269;-64
2022/11/28 00:12:45;;;;;;;12.07;6.70;;;;;;;;;;5037518;28;20185;-64
2022/11/28 00:15:11;;;;;;;11.47;6.97;;;;;;;;;;5027282;28;20632;-64
2022/11/28 00:17:36;;;;;;;10.10;6.20;;;;;;;;;;5047767;28;20201;-64
2022/11/28 00:20:02;;;;;;;10.50;6.43;;;;;;;;;;5023953;28;20185;-64
2022/11/28 00:22:28;;;;;;;8.73;6.07;;;;;;;;;;5026324;28;20730;-64
2022/11/28 00:24:53;;;;;;;10.60;6.73;;;;;;;;;;5030093;28;20220;-64
2022/11/28 00:27:19;;;;;;;9.83;6.20;;;;;;;;;;5035129;28;20174;-64
2022/11/28 00:29:44;;;;;;;10.00;6.60;;;;;;;;;;5033545;28;20194;-64
2022/11/28 00:32:09;;;;;;;12.10;6.47;;;;;;;;;;5028231;28;20257;-64
2022/11/28 00:34:35;;;;;;;10.70;6.50;;;;;;;;;;5020980;28;20186;-64
2022/11/28 00:37:00;;;;;;;8.37;6.07;;;;;;;;;;5032860;28;20217;-64
2022/11/28 00:39:25;;;;;;;10.00;6.33;;;;;;;;;;5028374;28;20194;-64
2022/11/28 00:41:51;;;;;;;8.50;5.87;;;;;;;;;;5035633;28;20266;-64
2022/11/28 00:44:16;;;;;;;11.57;6.17;;;;;;;;;;5016629;28;20328;-64
2022/11/28 00:46:41;;;;;;;9.20;6.00;;;;;;;;;;5022441;28;20312;-64
2022/11/28 00:49:07;;;;;;;9.50;6.00;;;;;;;;;;5022963;28;20442;-64
2022/11/28 00:51:34;;;;;;;8.27;6.07;;;;;;;;;;5033038;28;20554;-64
2022/11/28 00:54:01;;;;;;;9.13;6.10;;;;;;;;;;5043379;28;20186;-64
2022/11/28 00:56:29;;;;;;;9.73;5.73;;;;;;;;;;5032107;28;20556;-64
2022/11/28 00:58:55;;;;;;;8.45;5.90;;;;;;;;;;5025801;28;20250;-64
2022/11/28 01:01:22;;;;;;;9.05;5.85;;;;;;;;;;5010815;28;20243;-64
2022/11/28 01:03:49;;;;;;;10.40;5.97;;;;;;;;;;5026704;28;20190;-64
2022/11/28 01:06:27;;;;;;;8.97;5.67;;;;;;;;;;5031061;28;20218;-64
2022/11/28 01:08:53;;;;;;;9.90;5.97;;;;;;;;;;5017586;28;20668;-64
2022/11/28 01:11:19;;;;;;;10.63;5.68;;;;;;;;;;5022886;28;20242;-64
2022/11/28 01:13:45;;;;;;;13.20;6.50;;;;;;;;;;5013355;28;20222;-64
2022/11/28 01:16:10;;;;;;;10.30;6.25;;;;;;;;;;5036847;28;20205;-64
2022/11/28 01:18:37;;;;;;;10.33;6.00;;;;;;;;;;5025545;28;20574;-64
2022/11/28 01:21:03;;;;;;;8.18;5.93;;;;;;;;;;5031913;28;20196;-63
2022/11/28 01:23:28;;;;;;;9.77;6.30;;;;;;;;;;5025233;28;20186;-63
2022/11/28 01:25:53;;;;;;;10.20;6.10;;;;;;;;;;5038294;28;20481;-64
2022/11/28 01:28:19;;;;;;;12.13;6.40;;;;;;;;;;5042785;28;20201;-64
2022/11/28 01:30:44;;;;;;;10.43;6.83;;;;;;;;;;5018172;28;20186;-64
2022/11/28 01:33:09;;;;;;;8.83;6.10;;;;;;;;;;5012937;28;20208;-64
2022/11/28 01:35:35;;;;;;;9.80;5.97;;;;;;;;;;5016575;28;20657;-64
2022/11/28 01:38:00;;;;;;;11.10;6.45;;;;;;;;;;5024557;28;20202;-64
2022/11/28 01:40:25;;;;;;;9.90;6.43;;;;;;;;;;5011103;28;20179;-64
2022/11/28 01:42:51;;;;;;;8.50;5.93;;;;;;;;;;5025883;28;20197;-64
2022/11/28 01:45:32;;;;;;;10.18;6.50;;;;;;;;;;5023593;28;20243;-64
2022/11/28 01:48:01;;;;;;;11.50;6.30;;;;;;;;;;5024531;28;20193;-64
2022/11/28 01:50:30;;;;;;;11.05;6.55;;;;;;;;;;5027838;28;20934;-64
2022/11/28 01:52:57;;;;;;;9.30;6.17;;;;;;;;;;5010682;28;20487;-64
2022/11/28 01:55:26;;;;;;;10.17;6.50;;;;;;;;;;5012635;28;20179;-64
2022/11/28 01:57:54;;;;;;;8.37;6.20;;;;;;;;;;5027271;28;20198;-64
2022/11/28 02:00:20;;;;;;;9.40;6.50;;;;;;;;;;5028683;28;20236;-64
2022/11/28 02:03:04;;;;;;;10.55;6.53;;;;;;;;;;5022321;28;20242;-63
2022/11/28 02:05:29;;;;;;;9.80;6.90;;;;;;;;;;5010076;28;20224;-63
2022/11/28 02:07:55;;;;;;;12.80;6.45;;;;;;;;;;5012307;28;20290;-64
2022/11/28 02:10:26;;;;;;;10.45;6.88;;;;;;;;;;5030244;28;20174;-64
2022/11/28 02:13:03;;;;;;;10.55;6.70;;;;;;;;;;5035420;28;20648;-64
2022/11/28 02:15:57;;;;;;;14.45;7.30;;;;;;;;;;5023717;28;20183;-64
2022/11/28 02:18:51;;;;;;;10.03;6.60;;;;;;;;;;5020385;28;20241;-63
2022/11/28 02:21:29;;;;;;;12.45;6.88;;;;;;;;;;5027097;28;20186;-63
2022/11/28 02:23:57;;;;;;;12.30;6.80;;;;;;;;;;5029407;28;20296;-63
2022/11/28 02:26:24;;;;;;;9.70;6.07;;;;;;;;;;5025169;28;20178;-63
2022/11/28 02:29:11;;;;;;;9.40;6.20;;;;;;;;;;5045621;28;20169;-63
2022/11/28 02:32:10;;;;;;;16.27;6.53;;;;;;;;;;5026905;28;20190;-64
2022/11/28 02:34:43;;;;;;;10.50;6.33;;;;;;;;;;5025359;28;20177;-64
2022/11/28 02:37:25;;;;;;;10.27;6.55;;;;;;;;;;5036254;28;20201;-64
2022/11/28 02:40:16;;;;;;;11.73;7.03;;;;;;;;;;5019195;28;20198;-63
2022/11/28 02:42:49;;;;;;;9.52;6.70;;;;;;;;;;5025993;28;20186;-63
2022/11/28 02:45:56;;;;;;;11.43;6.50;;;;;;;;;;5017245;28;20217;-63
2022/11/28 02:48:42;;;;;;;11.27;6.63;;;;;;;;;;5024743;28;20529;-64
2022/11/28 02:51:20;;;;;;;10.93;6.97;;;;;;;;;;5017267;28;20516;-65
2022/11/28 02:53:47;;;;;;;9.75;6.65;;;;;;;;;;5021062;28;20190;-63
2022/11/28 02:56:12;;;;;;;9.18;6.63;;;;;;;;;;5022850;28;20201;-63
2022/11/28 02:58:38;;;;;;;11.40;6.70;;;;;;;;;;5016635;28;20218;-64
2022/11/28 03:01:11;;;;;;;11.95;7.25;;;;;;;;;;5024705;28;20291;-64
2022/11/28 03:03:57;;;;;;;10.02;6.63;;;;;;;;;;5028212;28;20193;-64
2022/11/28 03:06:46;;;;;;;11.93;7.20;;;;;;;;;;5030406;28;20391;-64
2022/11/28 03:09:32;;;;;;;12.48;7.68;;;;;;;;;;5014506;28;20201;-64
2022/11/28 03:12:16;;;;;;;12.13;7.25;;;;;;;;;;5033796;28;20235;-64
2022/11/28 03:14:55;;;;;;;10.95;7.05;;;;;;;;;;5028296;28;20197;-63
2022/11/28 03:17:31;;;;;;;10.73;6.80;;;;;;;;;;5026699;28;20241;-64
2022/11/28 03:20:30;;;;;;;13.02;7.15;;;;;;;;;;5025321;28;20606;-64
2022/11/28 03:23:12;;;;;;;11.63;7.30;;;;;;;;;;5025956;28;20262;-64
2022/11/28 03:26:11;;;;;;;10.80;7.15;;;;;;;;;;5016823;28;20228;-64
2022/11/28 03:28:47;;;;;;;10.93;7.13;;;;;;;;;;5000093;28;20269;-64
2022/11/28 03:31:21;;;;;;;11.90;7.65;;;;;;;;;;5025667;28;20307;-63
2022/11/28 03:33:56;;;;;;;11.93;7.93;;;;;;;;;;5019459;28;20186;-63
2022/11/28 03:36:27;;;;;;;14.85;7.93;;;;;;;;;;5024670;28;20562;-64
2022/11/28 03:38:59;;;;;;;11.30;8.00;;;;;;;;;;5025951;28;20703;-64
2022/11/28 03:41:37;;;;;;;13.68;8.73;;;;;;;;;;5012650;28;20185;-63
2022/11/28 03:44:07;;;;;;;13.18;8.73;;;;;;;;;;5024747;28;20249;-63
2022/11/28 03:46:38;;;;;;;14.70;8.57;;;;;;;;;;5016298;28;20190;-63
2022/11/28 03:49:08;;;;;;;16.33;9.05;;;;;;;;;;5021909;28;20492;-63
2022/11/28 03:51:42;;;;;;;14.52;8.73;;;;;;;;;;5020752;28;20183;-63
2022/11/28 03:54:27;;;;;;;12.50;8.60;;;;;;;;;;5021594;28;20201;-63
2022/11/28 03:57:11;;;;;;;14.73;9.68;;;;;;;;;;5021417;28;20182;-63
2022/11/28 03:59:41;;;;;;;14.07;10.18;;;;;;;;;;5023308;28;20317;-63
2022/11/28 04:02:13;;;;;;;16.02;9.57;;;;;;;;;;5014834;28;20258;-63
2022/11/28 04:04:51;;;;;;;15.30;10.25;;;;;;;;;;5034038;28;20197;-63
2022/11/28 04:07:44;;;;;;;15.65;10.38;;;;;;;;;;5022607;28;20174;-63
2022/11/28 04:10:37;;;;;;;16.50;10.88;;;;;;;;;;5030256;28;20190;-63
2022/11/28 04:13:25;;;;;;;16.90;11.77;;;;;;;;;;5023057;28;20185;-63
2022/11/28 04:15:56;;;;;;;15.63;10.50;;;;;;;;;;5022855;28;20185;-63
2022/11/28 04:18:47;;;;;;;17.40;11.25;;;;;;;;;;5022487;28;20236;-63
2022/11/28 04:21:23;;;;;;;15.85;10.77;;;;;;;;;;5030754;28;20192;-64
2022/11/28 04:23:53;;;;;;;15.38;11.35;;;;;;;;;;5027235;28;20186;-64
2022/11/28 04:26:33;;;;;;;16.73;11.20;;;;;;;;;;5027545;28;20187;-63
2022/11/28 04:29:03;;;;;;;17.50;10.25;;;;;;;;;;5029211;28;20264;-63
2022/11/28 04:31:30;;;;;;;16.70;10.98;;;;;;;;;;5031627;28;20204;-63
2022/11/28 04:34:02;;;;;;;17.30;11.07;;;;;;;;;;5041606;28;20668;-63
2022/11/28 04:36:30;;;;;;;15.20;10.88;;;;;;;;;;5028934;28;20196;-63
2022/11/28 04:38:57;;;;;;;16.70;11.50;;;;;;;;;;5036179;28;20213;-63
2022/11/28 04:41:37;;;;;;;17.05;10.82;;;;;;;;;;5020702;28;20178;-64
2022/11/28 04:44:14;;;;;;;20.60;10.88;;;;;;;;;;5048323;28;20260;-64
2022/11/28 04:46:47;;;;;;;20.05;10.80;;;;;;;;;;5023191;28;20190;-63
2022/11/28 04:49:13;;;;;;;15.57;10.55;;;;;;;;;;5030407;28;20170;-64
2022/11/28 04:51:48;;;;;;;15.23;10.45;;;;;;;;;;5020202;28;20179;-64
2022/11/28 04:54:51;;;;;;;18.02;10.48;;;;;;;;;;5011325;28;20269;-64
2022/11/28 04:57:22;;;;;;;15.30;10.55;;;;;;;;;;5009656;28;20241;-64
2022/11/28 04:59:48;;;;;;;16.75;9.85;;;;;;;;;;5028716;28;20625;-64
2022/11/28 05:02:16;;;;;;;14.65;10.52;;;;;;;;;;5022382;28;20547;-63
2022/11/28 05:04:43;;;;;;;17.33;10.55;;;;;;;;;;5022357;28;20230;-63
2022/11/28 05:07:08;;;;;;;16.58;9.95;;;;;;;;;;5016148;28;20210;-63
2022/11/28 05:09:35;;;;;;;15.48;10.13;;;;;;;;;;5023878;28;20210;-63
2022/11/28 05:12:00;;;;;;;15.15;10.10;;;;;;;;;;5037428;28;20181;-63
2022/11/28 05:14:26;;;;;;;14.93;9.85;;;;;;;;;;5051166;28;20540;-63
2022/11/28 05:16:51;;;;;;;16.08;9.82;;;;;;;;;;5032371;28;20182;-63
2022/11/28 05:19:17;;;;;;;17.45;10.30;;;;;;;;;;5014179;28;20277;-63
2022/11/28 05:21:42;;;;;;;15.68;9.80;;;;;;;;;;5012356;28;20273;-63
2022/11/28 05:24:07;;;;;;;20.88;10.38;;;;;;;;;;5037142;28;20216;-63
2022/11/28 05:26:34;;;;;;;14.88;9.93;;;;;;;;;;5029608;28;20185;-64
2022/11/28 05:29:00;;;;;;;16.83;9.87;;;;;;;;;;5019581;28;20205;-64
2022/11/28 05:31:26;;;;;;;17.43;10.37;;;;;;;;;;5027836;28;20177;-65
2022/11/28 05:33:53;;;;;;;15.63;10.27;;;;;;;;;;5039418;28;20265;-65
2022/11/28 05:36:19;;;;;;;15.23;10.30;;;;;;;;;;5029355;28;20625;-65
2022/11/28 05:38:45;;;;;;;16.30;10.20;;;;;;;;;;5034529;28;20213;-66
2022/11/28 05:41:27;;;;;;;17.77;10.80;;;;;;;;;;5027629;28;20202;-65
2022/11/28 05:43:52;;;;;;;15.20;10.80;;;;;;;;;;5031008;28;20194;-65
2022/11/28 05:46:19;;;;;;;15.15;10.65;;;;;;;;;;5027759;28;20187;-66
2022/11/28 05:48:44;;;;;;;16.75;10.75;;;;;;;;;;5032791;28;20186;-66
2022/11/28 05:51:10;;;;;;;16.52;10.75;;;;;;;;;;5023407;28;20183;-65
2022/11/28 05:53:35;;;;;;;18.57;11.20;;;;;;;;;;5023371;28;20190;-66
2022/11/28 05:56:16;;;;;;;21.03;11.23;;;;;;;;;;5025570;28;20244;-65
2022/11/28 05:58:42;;;;;;;18.92;11.13;;;;;;;;;;5021513;28;20216;-65
2022/11/28 06:01:13;;;;;;;21.93;12.10;;;;;;;;;;5024352;28;20242;-66
2022/11/28 06:03:39;;;;;;;22.17;11.80;;;;;;;;;;5019233;28;20856;-65
2022/11/28 06:06:09;;;;;;;17.83;12.43;;;;;;;;;;5028397;28;20244;-66
2022/11/28 06:08:34;;;;;;;21.33;13.03;;;;;;;;;;5021346;28;20202;-66
2022/11/28 06:11:00;;;;;;;17.87;12.80;;;;;;;;;;5014249;28;20190;-66
2022/11/28 06:13:26;;;;;;;21.53;12.60;;;;;;;;;;5011742;28;20179;-66
2022/11/28 06:15:52;;;;;;;18.87;12.07;;;;;;;;;;5011649;28;20190;-66
2022/11/28 06:18:17;;;;;;;20.80;12.33;;;;;;;;;;5015862;28;20198;-66
2022/11/28 06:20:42;;;;;;;19.17;12.30;;;;;;;;;;5014656;28;20569;-66
2022/11/28 06:23:08;;;;;;;18.67;12.80;;;;;;;;;;5016992;28;20190;-66
2022/11/28 06:25:33;;;;;;;22.83;13.50;;;;;;;;;;5015252;28;20179;-66
2022/11/28 06:27:58;;;;;;;20.27;13.37;;;;;;;;;;5014330;28;20182;-66
2022/11/28 06:30:24;;;;;;;20.27;13.77;;;;;;;;;;5020167;28;20320;-66
2022/11/28 06:32:49;;;;;;;19.43;13.37;;;;;;;;;;5018690;28;20239;-67
2022/11/28 06:35:14;;;;;;;23.58;14.57;;;;;;;;;;5033014;28;20186;-66
2022/11/28 06:37:40;;;;;;;22.27;14.57;;;;;;;;;;5024455;28;20205;-66
2022/11/28 06:40:06;;;;;;;23.42;14.25;;;;;;;;;;5023607;28;20178;-66
2022/11/28 06:42:34;;;;;;;22.70;14.20;;;;;;;;;;5017809;28;20757;-66
2022/11/28 06:44:59;;;;;;;19.88;13.60;;;;;;;;;;5010538;28;20194;-66
2022/11/28 06:47:25;;;;;;;19.10;14.30;;;;;;;;;;5022948;28;20170;-66
2022/11/28 06:49:50;;;;;;;21.17;15.03;;;;;;;;;;5027105;28;20358;-66
2022/11/28 06:52:15;;;;;;;24.20;15.57;;;;;;;;;;5011679;28;20193;-66
2022/11/28 06:54:41;;;;;;;25.90;15.50;;;;;;;;;;5019444;28;20174;-66
2022/11/28 06:57:06;;;;;;;24.50;15.33;;;;;;;;;;5012131;28;20190;-66
2022/11/28 06:59:31;;;;;;;22.57;14.57;;;;;;;;;;5010310;28;20234;-66
2022/11/28 07:02:00;;;;;;;27.63;16.10;;;;;;;;;;5007804;28;20187;-66
2022/11/28 07:04:25;;;;;;;23.27;15.50;;;;;;;;;;5011552;28;20280;-67
2022/11/28 07:06:51;;;;;;;25.00;16.10;;;;;;;;;;5007100;28;20331;-66
2022/11/28 07:09:16;;;;;;;24.83;16.77;;;;;;;;;;5028464;28;20252;-66
2022/11/28 07:11:41;;;;;;;27.93;17.50;;;;;;;;;;5022749;28;20600;-66
2022/11/28 07:14:07;;;;;;;24.53;17.13;;;;;;;;;;5020811;28;20282;-66
2022/11/28 07:16:32;;;;;;;25.27;17.17;;;;;;;;;;5027520;28;20183;-66
2022/11/28 07:18:58;;;;;;;24.77;17.33;;;;;;;;;;5034203;28;20284;-66
2022/11/28 07:21:24;;;;;;;22.70;17.60;;;;;;;;;;5019021;28;20609;-66
2022/11/28 07:23:50;;;;;;;24.90;17.47;;;;;;;;;;5008358;28;20263;-64
2022/11/28 07:26:17;;;;;;;27.83;17.97;;;;;;;;;;5014208;28;20183;-66
2022/11/28 07:28:44;;;;;;;22.67;17.33;;;;;;;;;;5010461;28;20187;-64
2022/11/28 07:31:12;;;;;;;23.63;17.10;;;;;;;;;;5009785;28;20182;-63
2022/11/28 07:33:39;;;;;;;24.77;17.60;;;;;;;;;;5007879;28;20185;-63
2022/11/28 07:36:09;;;;;;;28.50;18.47;;;;;;;;;;5010848;28;20181;-64
2022/11/28 07:38:34;;;;;;;27.53;18.77;;;;;;;;;;5007984;28;20478;-64
2022/11/28 07:41:12;;;;;;;27.40;18.47;;;;;;;;;;5008242;28;20676;-64
2022/11/28 07:43:42;;;;;;;23.90;18.07;;;;;;;;;;5009848;28;20265;-63
2022/11/28 07:46:11;;;;;;;27.83;19.30;;;;;;;;;;5007470;28;20543;-65
2022/11/28 07:48:36;;;;;;;27.57;18.97;;;;;;;;;;5012336;28;20549;-63
2022/11/28 07:51:07;;;;;;;31.73;19.63;;;;;;;;;;5017690;28;20265;-64
2022/11/28 07:53:33;;;;;;;27.57;19.10;;;;;;;;;;5012841;28;20179;-64
2022/11/28 07:56:07;;;;;;;26.40;18.80;;;;;;;;;;5012658;28;20287;-63
2022/11/28 07:58:34;;;;;;;26.17;19.93;;;;;;;;;;5011830;28;20198;-63
2022/11/28 08:01:00;;;;;;;28.60;19.57;;;;;;;;;;5023160;28;20253;-63
2022/11/28 08:03:25;;;;;;;26.40;19.17;;;;;;;;;;5016685;28;20209;-65
2022/11/28 08:05:51;;;;;;;31.03;20.73;;;;;;;;;;5023220;28;20235;-63
2022/11/28 08:08:17;;;;;;;27.20;19.60;;;;;;;;;;5008249;28;20657;-63
2022/11/28 08:10:43;;;;;;;30.17;20.00;;;;;;;;;;5010172;28;20427;-64
2022/11/28 08:13:09;;;;;;;31.00;19.67;;;;;;;;;;5026733;28;20190;-67
2022/11/28 08:15:38;;;;;;;31.17;19.83;;;;;;;;;;5026903;28;20189;-64
2022/11/28 08:18:03;;;;;;;28.77;19.00;;;;;;;;;;5019188;28;20301;-65
2022/11/28 08:20:29;;;;;;;28.37;18.23;;;;;;;;;;5020539;28;20178;-65
2022/11/28 08:22:54;;;;;;;26.97;17.87;;;;;;;;;;5021006;28;20236;-64
2022/11/28 08:25:19;;;;;;;26.70;17.50;;;;;;;;;;5022699;28;20228;-65
2022/11/28 08:27:45;;;;;;;24.80;17.80;;;;;;;;;;5020449;28;20592;-65
2022/11/28 08:30:10;;;;;;;26.03;17.13;;;;;;;;;;5012639;28;20174;-67
2022/11/28 08:32:36;;;;;;;27.80;16.70;;;;;;;;;;5011780;28;20189;-65
2022/11/28 08:35:01;;;;;;;22.93;16.37;;;;;;;;;;5022653;28;20184;-65
2022/11/28 08:37:27;;;;;;;26.60;16.67;;;;;;;;;;5018466;28;20202;-65
2022/11/28 08:39:53;;;;;;;24.83;17.07;;;;;;;;;;5011151;28;20189;-65
2022/11/28 08:42:18;;;;;;;24.50;17.07;;;;;;;;;;5016850;28;20573;-65
2022/11/28 08:44:43;;;;;;;23.90;17.10;;;;;;;;;;5010999;28;20283;-65
2022/11/28 08:47:09;;;;;;;23.67;16.90;;;;;;;;;;5012158;28;20642;-64
2022/11/28 08:49:36;;;;;;;24.80;15.93;;;;;;;;;;5021710;28;20200;-65
2022/11/28 08:52:02;;;;;;;24.83;17.70;;;;;;;;;;5017858;28;20261;-65
2022/11/28 08:54:28;;;;;;;23.33;17.07;;;;;;;;;;5019575;28;20185;-66
2022/11/28 08:56:53;;;;;;;21.83;16.73;;;;;;;;;;5014287;28;20186;-65
2022/11/28 08:59:18;;;;;;;26.43;18.73;;;;;;;;;;5024266;28;20862;-65
2022/11/28 09:01:44;;;;;;;25.53;17.27;;;;;;;;;;5028107;28;20193;-65
2022/11/28 09:04:09;;;;;;;22.80;17.20;;;;;;;;;;5019802;28;20280;-65
2022/11/28 09:06:38;;;;;;;22.67;16.57;;;;;;;;;;5015296;28;20186;-65
2022/11/28 09:09:04;;;;;;;22.03;16.47;;;;;;;;;;5022172;28;20180;-66
2022/11/28 09:11:29;;;;;;;27.87;17.17;;;;;;;;;;5032648;28;20192;-65
2022/11/28 09:13:55;;;;;;;23.60;17.00;;;;;;;;;;5031303;28;20190;-65
2022/11/28 09:16:20;;;;;;;23.20;17.20;;;;;;;;;;5029549;28;20260;-65
2022/11/28 09:18:46;;;;;;;21.37;16.87;;;;;;;;;;5030654;28;20215;-66
2022/11/28 09:21:13;;;;;;;21.37;15.87;;;;;;;;;;5030863;28;20428;-66
2022/11/28 09:23:40;;;;;;;24.10;17.57;;;;;;;;;;5029472;28;20543;-66
2022/11/28 09:26:08;;;;;;;24.05;16.55;;;;;;;;;;5031202;28;20182;-66
2022/11/28 09:28:33;;;;;;;21.07;16.40;;;;;;;;;;5024472;28;20252;-65
2022/11/28 09:31:00;;;;;;;22.27;16.30;;;;;;;;;;5021879;28;20190;-66
2022/11/28 09:33:26;;;;;;;21.97;16.10;;;;;;;;;;5027775;28;20190;-66
2022/11/28 09:35:51;;;;;;;22.93;16.77;;;;;;;;;;5030079;28;20543;-66
2022/11/28 09:38:17;;;;;;;22.25;15.98;;;;;;;;;;5029516;28;20198;-66
2022/11/28 09:40:43;;;;;;;20.37;15.53;;;;;;;;;;5028082;28;20292;-66
2022/11/28 09:43:28;;;;;;;21.90;15.70;;;;;;;;;;5027495;28;20564;-65
2022/11/28 09:45:55;;;;;;;19.05;14.43;;;;;;;;;;5027172;28;20190;-66
2022/11/28 09:48:37;;;;;;;19.77;15.27;;;;;;;;;;5029025;28;20182;-66
2022/11/28 09:51:29;;;;;;;20.05;14.68;;;;;;;;;;5029183;28;20285;-66
2022/11/28 09:54:12;;;;;;;24.50;15.17;;;;;;;;;;5029364;28;20198;-66
2022/11/28 09:56:37;;;;;;;20.83;14.95;;;;;;;;;;5028599;28;20194;-66
2022/11/28 09:59:18;;;;;;;18.63;14.90;;;;;;;;;;5025466;28;20200;-65
2022/11/28 10:02:03;;;;;;;21.23;13.52;;;;;;;;;;5026767;28;20252;-67
2022/11/28 10:04:43;;;;;;;19.63;14.27;;;;;;;;;;5029937;28;20252;-66
2022/11/28 10:07:19;;;;;;;19.00;14.07;;;;;;;;;;5023221;28;20198;-65
2022/11/28 10:10:10;;;;;;;20.33;14.82;;;;;;;;;;5029512;28;20199;-65
2022/11/28 10:13:00;;;;;;;17.95;14.05;;;;;;;;;;4999368;28;20213;-65
2022/11/28 10:15:39;;;;;;;19.00;14.07;;;;;;;;;;5026265;28;20261;-65
2022/11/28 10:18:24;;;;;;;16.83;14.13;;;;;;;;;;5021125;28;20665;-65
2022/11/28 10:20:55;;;;;;;22.17;14.15;;;;;;;;;;5026015;28;20446;-65
2022/11/28 10:23:36;;;;;;;19.55;14.15;;;;;;;;;;5022426;28;20656;-65
2022/11/28 10:26:31;;;;;;;17.02;13.30;;;;;;;;;;5025270;28;20567;-65
2022/11/28 10:29:01;;;;;;;19.02;13.50;;;;;;;;;;5020445;28;20179;-65
2022/11/28 10:31:33;;;;;;;22.20;13.93;;;;;;;;;;5014113;28;20252;-66
2022/11/28 10:34:41;;;;;;;17.58;13.73;;;;;;;;;;5013065;28;20478;-65
2022/11/28 10:37:13;;;;;;;17.13;13.23;;;;;;;;;;5003622;28;20197;-65
2022/11/28 10:39:43;;;;;;;18.75;14.00;;;;;;;;;;5027029;28;20269;-65
2022/11/28 10:42:17;;;;;;;17.05;13.48;;;;;;;;;;5026161;28;20216;-66
2022/11/28 10:45:18;;;;;;;20.15;14.18;;;;;;;;;;5012615;28;20190;-66
2022/11/28 10:48:01;;;;;;;19.23;14.38;;;;;;;;;;5020521;28;20174;-66
2022/11/28 10:51:20;;;;;;;25.95;14.18;;;;;;;;;;5025452;28;20175;-65
2022/11/28 10:54:02;;;;;;;18.67;13.60;;;;;;;;;;4969573;28;20212;-65
2022/11/28 10:57:05;;;;;;;18.75;13.45;;;;;;;;;;5027304;28;20197;-65
2022/11/28 10:59:43;;;;;;;16.63;13.15;;;;;;;;;;5012574;28;20252;-65
2022/11/28 11:02:19;;;;;;;17.98;13.60;;;;;;;;;;5009614;28;20251;-65
2022/11/28 11:04:44;;;;;;;17.48;14.32;;;;;;;;;;5010050;28;20191;-66
2022/11/28 11:07:22;;;;;;;18.95;14.10;;;;;;;;;;5013811;28;20175;-66
2022/11/28 11:09:47;;;;;;;18.63;13.85;;;;;;;;;;5012905;28;20257;-66
2022/11/28 11:12:20;;;;;;;19.73;15.70;;;;;;;;;;5022449;28;20677;-66
2022/11/28 11:14:45;;;;;;;20.60;15.15;;;;;;;;;;5027108;28;20552;-66
2022/11/28 11:17:43;;;;;;;22.95;15.00;;;;;;;;;;5022770;28;20174;-66
2022/11/28 11:20:37;;;;;;;19.20;14.45;;;;;;;;;;4998013;28;20267;-66
2022/11/28 11:23:32;;;;;;;21.65;15.40;;;;;;;;;;5021702;28;20210;-66
2022/11/28 11:25:57;;;;;;;21.98;15.40;;;;;;;;;;5010650;28;20204;-66
2022/11/28 11:28:31;;;;;;;19.00;15.25;;;;;;;;;;5024052;28;20178;-66
2022/11/28 11:31:02;;;;;;;20.05;13.75;;;;;;;;;;5031098;28;20541;-66
2022/11/28 11:33:33;;;;;;;18.40;14.60;;;;;;;;;;5022258;28;20186;-66
2022/11/28 11:36:01;;;;;;;20.35;14.70;;;;;;;;;;5019156;28;20219;-66
2022/11/28 11:38:29;;;;;;;20.38;14.75;;;;;;;;;;5028333;28;20732;-66
2022/11/28 11:40:54;;;;;;;19.05;14.10;;;;;;;;;;5028332;28;20578;-66
2022/11/28 11:43:35;;;;;;;20.17;14.43;;;;;;;;;;5029505;28;20240;-66
2022/11/28 11:46:06;;;;;;;21.92;14.65;;;;;;;;;;5028740;28;20255;-66
2022/11/28 11:48:40;;;;;;;20.60;15.07;;;;;;;;;;5043943;28;20173;-66
2022/11/28 11:51:20;;;;;;;20.88;15.68;;;;;;;;;;5022232;28;20584;-66
2022/11/28 11:53:45;;;;;;;19.45;14.35;;;;;;;;;;5022194;28;20228;-66
2022/11/28 11:56:12;;;;;;;18.88;14.60;;;;;;;;;;5027642;28;20192;-66
2022/11/28 11:58:45;;;;;;;21.05;14.70;;;;;;;;;;5024544;28;20263;-66
2022/11/28 12:01:13;;;;;;;20.20;13.73;;;;;;;;;;5027897;28;20232;-66
2022/11/28 12:03:45;;;;;;;18.92;14.52;;;;;;;;;;5017434;28;20209;-66
2022/11/28 12:06:21;;;;;;;18.75;14.27;;;;;;;;;;5011434;28;20633;-66
2022/11/28 12:08:51;;;;;;;17.17;12.77;;;;;;;;;;5013156;28;20214;-66
2022/11/28 12:11:23;;;;;;;18.30;12.73;;;;;;;;;;5016970;28;20182;-65
2022/11/28 12:13:49;;;;;;;14.77;12.13;;;;;;;;;;5013889;28;20590;-65
2022/11/28 12:16:45;;;;;;;16.13;12.20;;;;;;;;;;5008430;28;20190;-65
2022/11/28 12:19:30;;;;;;;15.30;12.50;;;;;;;;;;5011404;28;20198;-65
2022/11/28 12:22:11;;;;;;;16.08;12.93;;;;;;;;;;5011358;28;20274;-65
2022/11/28 12:24:52;;;;;;;14.98;11.77;;;;;;;;;;5010018;28;20225;-65
2022/11/28 12:27:36;;;;;;;14.77;11.85;;;;;;;;;;5007967;28;20221;-65
2022/11/28 12:30:08;;;;;;;14.15;11.95;;;;;;;;;;5008631;28;20186;-64
2022/11/28 12:32:54;;;;;;;16.17;12.53;;;;;;;;;;5009386;28;20265;-64
2022/11/28 12:35:38;;;;;;;15.23;12.50;;;;;;;;;;5012519;28;20189;-64
2022/11/28 12:38:35;;;;;;;17.05;11.15;;;;;;;;;;5022434;28;20237;-64
2022/11/28 12:41:11;;;;;;;14.90;11.80;;;;;;;;;;5014705;28;20205;-64
2022/11/28 12:43:45;;;;;;;12.82;10.40;;;;;;;;;;5023442;28;20202;-64
2022/11/28 12:46:34;;;;;;;15.55;11.10;;;;;;;;;;5020276;28;20187;-64
2022/11/28 12:49:35;;;;;;;14.45;11.27;;;;;;;;;;5014950;28;20202;-64
2022/11/28 12:52:06;;;;;;;13.18;10.95;;;;;;;;;;5009218;28;20864;-64
2022/11/28 12:55:10;;;;;;;12.60;9.68;;;;;;;;;;5021129;28;20553;-64
2022/11/28 12:57:43;;;;;;;12.15;10.10;;;;;;;;;;5035007;28;20746;-64
2022/11/28 13:00:18;;;;;;;14.60;10.60;;;;;;;;;;5018172;28;20320;-64
2022/11/28 13:02:58;;;;;;;14.43;10.82;;;;;;;;;;5013491;28;20194;-64
2022/11/28 13:05:44;;;;;;;13.30;10.65;;;;;;;;;;5011314;28;20178;-64
2022/11/28 13:08:31;;;;;;;12.98;10.77;;;;;;;;;;5012359;28;20177;-64
2022/11/28 13:11:11;;;;;;;11.95;10.35;;;;;;;;;;5015132;28;20203;-64
2022/11/28 13:13:45;;;;;;;13.93;10.50;;;;;;;;;;5014653;28;20265;-64
2022/11/28 13:16:34;;;;;;;14.73;10.75;;;;;;;;;;5016097;28;20223;-64
2022/11/28 13:19:19;;;;;;;16.25;11.57;;;;;;;;;;5021780;28;20620;-64
2022/11/28 13:21:47;;;;;;;14.25;10.95;;;;;;;;;;5022706;28;20229;-64
2022/11/28 13:24:26;;;;;;;15.70;10.90;;;;;;;;;;5013813;28;20701;-64
2022/11/28 13:27:02;;;;;;;14.73;11.20;;;;;;;;;;5016647;28;20206;-64
2022/11/28 13:29:40;;;;;;;15.52;11.07;;;;;;;;;;5010028;28;20221;-64
2022/11/28 13:32:23;;;;;;;15.20;10.55;;;;;;;;;;5010582;28;20175;-64
2022/11/28 13:34:49;;;;;;;12.35;9.80;;;;;;;;;;5022921;28;20186;-64
2022/11/28 13:37:26;;;;;;;17.00;11.77;;;;;;;;;;5010867;28;20234;-65
2022/11/28 13:40:14;;;;;;;16.35;10.23;;;;;;;;;;5013591;28;20209;-65
2022/11/28 13:42:45;;;;;;;12.55;10.65;;;;;;;;;;5016150;28;20175;-65
2022/11/28 13:45:33;;;;;;;11.90;10.07;;;;;;;;;;5011335;28;20266;-65
2022/11/28 13:48:34;;;;;;;14.07;11.73;;;;;;;;;;5015049;28;20174;-65
2022/11/28 13:51:19;;;;;;;14.25;10.55;;;;;;;;;;5010875;28;20232;-66
2022/11/28 13:53:46;;;;;;;15.32;11.13;;;;;;;;;;5017348;28;20673;-66
2022/11/28 13:56:19;;;;;;;14.98;11.05;;;;;;;;;;5010120;28;20297;-66
2022/11/28 13:59:00;;;;;;;13.70;10.90;;;;;;;;;;5013315;28;20207;-66
2022/11/28 14:01:46;;;;;;;14.35;10.68;;;;;;;;;;5010328;28;20226;-67
2022/11/28 14:04:14;;;;;;;11.55;9.85;;;;;;;;;;5026158;28;20182;-66
2022/11/28 14:06:47;;;;;;;13.55;10.52;;;;;;;;;;5011131;28;20179;-66
2022/11/28 14:09:23;;;;;;;13.73;10.50;;;;;;;;;;4330458;28;9999939;-66
2022/11/28 14:11:51;;;;;;;14.95;10.70;;;;;;;;;;5027071;28;20272;-66
2022/11/28 14:14:28;;;;;;;13.93;10.57;;;;;;;;;;5018933;28;20194;-66
2022/11/28 14:16:53;;;;;;;15.00;10.35;;;;;;;;;;5024937;28;20174;-66
2022/11/28 14:19:40;;;;;;;15.77;10.60;;;;;;;;;;5025841;28;20222;-66
2022/11/28 14:22:33;;;;;;;13.27;10.57;;;;;;;;;;5025481;28;20182;-66
2022/11/28 14:25:09;;;;;;;14.25;10.85;;;;;;;;;;5008268;28;20190;-66
2022/11/28 14:27:39;;;;;;;11.95;10.23;;;;;;;;;;5019609;28;20177;-66
2022/11/28 14:30:06;;;;;;;15.98;10.35;;;;;;;;;;5028302;28;20197;-66
2022/11/28 14:32:39;;;;;;;13.80;10.27;;;;;;;;;;5032615;28;20190;-66
2022/11/28 14:35:14;;;;;;;16.33;11.75;;;;;;;;;;5031169;28;20199;-67
2022/11/28 14:37:54;;;;;;;15.55;10.07;;;;;;;;;;5037940;28;20228;-67
2022/11/28 14:40:53;;;;;;;16.98;11.52;;;;;;;;;;5007846;28;20179;-69
2022/11/28 14:43:28;;;;;;;18.80;11.88;;;;;;;;;;5028359;28;20232;-67
2022/11/28 14:46:18;;;;;;;15.90;11.35;;;;;;;;;;5020157;28;20205;-66
2022/11/28 14:48:58;;;;;;;16.95;11.88;;;;;;;;;;5039792;28;20210;-67
2022/11/28 14:51:49;;;;;;;17.88;12.27;;;;;;;;;;5028230;28;20174;-67
2022/11/28 14:54:23;;;;;;;17.42;12.10;;;;;;;;;;5021972;28;20182;-68